Time;durP1;ratioP1;P1;durP2;ratioP2;P2;SDS_P1;SDS_P2;PMS_P1;PMS_P2;Temp;Humidity;BMP_temperature;BMP_pressure;BME280_temperature;BME280_humidity;BME280_pressure;Samples;Min_cycle;Max_cycle;Signal;HPM_P1;HPM_P2
2022/07/15 00:00:51;;;;;;;8.15;1.65;;;10.60;99.90;;;;;;5070476;28;20119;-40
2022/07/15 00:03:17;;;;;;;7.95;1.50;;;10.80;99.90;;;;;;5070632;28;20052;-41
2022/07/15 00:05:45;;;;;;;7.03;1.38;;;10.70;99.90;;;;;;5070429;28;20041;-40
2022/07/15 00:08:10;;;;;;;3.28;1.00;;;10.90;99.90;;;;;;5069812;28;20483;-40
2022/07/15 00:10:36;;;;;;;8.35;1.85;;;10.90;99.90;;;;;;5069776;28;20047;-41
2022/07/15 00:13:02;;;;;;;5.72;1.88;;;11.00;99.90;;;;;;5069768;28;20045;-41
2022/07/15 00:15:30;;;;;;;10.45;1.58;;;11.00;99.90;;;;;;5070135;28;20441;-40
2022/07/15 00:17:59;;;;;;;8.63;1.30;;;10.70;99.90;;;;;;5070086;28;20044;-41
2022/07/15 00:20:26;;;;;;;10.50;1.60;;;11.20;99.90;;;;;;5070656;28;20048;-40
2022/07/15 00:22:52;;;;;;;8.90;1.50;;;11.30;99.90;;;;;;5070401;28;20552;-39
2022/07/15 00:25:18;;;;;;;7.85;1.30;;;11.30;99.90;;;;;;5070092;28;20051;-39
2022/07/15 00:27:55;;;;;;;10.90;1.65;;;11.50;99.90;;;;;;5070293;28;20093;-41
2022/07/15 00:30:22;;;;;;;8.05;1.55;;;11.10;99.90;;;;;;5069996;28;20398;-40
2022/07/15 00:32:49;;;;;;;6.07;0.90;;;11.30;99.90;;;;;;5070006;28;20068;-39
2022/07/15 00:35:14;;;;;;;9.82;1.20;;;11.50;99.90;;;;;;5070045;28;20044;-41
2022/07/15 00:37:40;;;;;;;6.03;1.08;;;11.20;99.90;;;;;;5070186;28;20094;-40
2022/07/15 00:40:07;;;;;;;7.00;1.25;;;11.00;99.90;;;;;;5070072;28;20474;-41
2022/07/15 00:42:45;;;;;;;6.55;0.90;;;11.10;99.90;;;;;;5070061;28;20114;-40
2022/07/15 00:45:23;;;;;;;8.63;1.00;;;11.90;99.90;;;;;;5069605;28;20494;-41
2022/07/15 00:47:51;;;;;;;10.23;1.92;;;11.60;99.90;;;;;;5070059;28;20048;-39
2022/07/15 00:50:19;;;;;;;5.15;1.10;;;11.50;99.90;;;;;;5069801;28;20068;-39
2022/07/15 00:52:50;;;;;;;8.15;1.38;;;11.80;99.90;;;;;;5069395;28;20120;-41
2022/07/15 00:55:16;;;;;;;5.28;0.85;;;12.00;99.90;;;;;;5069549;28;20394;-41
2022/07/15 00:57:44;;;;;;;6.68;1.23;;;11.90;99.90;;;;;;5069544;28;20056;-41
2022/07/15 01:00:11;;;;;;;5.60;0.90;;;11.70;99.90;;;;;;5068726;28;20466;-41
2022/07/15 01:02:44;;;;;;;7.95;1.10;;;11.40;99.90;;;;;;5069172;28;20052;-39
2022/07/15 01:05:12;;;;;;;9.82;1.67;;;;;;;;;;5068904;28;20044;-40
2022/07/15 01:07:41;;;;;;;9.70;1.10;;;;;;;;;;5069002;28;20399;-40
2022/07/15 01:10:08;;;;;;;6.05;1.17;;;;;;;;;;5069112;28;20067;-40
2022/07/15 01:12:43;;;;;;;4.80;0.90;;;;;;;;;;5069208;28;20051;-39
2022/07/15 01:15:09;;;;;;;4.78;1.00;;;;;;;;;;5069109;28;20142;-40
2022/07/15 01:17:38;;;;;;;7.20;1.13;;;;;;;;;;5069183;28;20052;-41
2022/07/15 01:20:05;;;;;;;5.53;0.95;;;11.60;99.90;;;;;;5069003;28;20051;-39
2022/07/15 01:22:30;;;;;;;10.23;1.52;;;11.60;99.90;;;;;;5068805;28;20064;-41
2022/07/15 01:24:56;;;;;;;10.82;1.60;;;12.00;99.90;;;;;;5068743;28;20056;-42
2022/07/15 01:27:22;;;;;;;5.93;1.63;;;12.00;99.90;;;;;;5069126;28;20044;-40
2022/07/15 01:29:48;;;;;;;9.52;1.17;;;11.90;99.90;;;;;;5069076;28;20072;-40
2022/07/15 01:32:13;;;;;;;9.50;1.30;;;11.70;99.90;;;;;;5068832;28;20417;-39
2022/07/15 01:34:39;;;;;;;6.20;1.40;;;12.10;99.90;;;;;;5068666;28;20036;-41
2022/07/15 01:37:05;;;;;;;5.72;0.98;;;11.60;99.90;;;;;;5068795;28;20115;-41
2022/07/15 01:39:31;;;;;;;6.40;1.02;;;;;;;;;;5068970;28;20155;-40
2022/07/15 01:41:56;;;;;;;6.32;1.02;;;11.60;99.90;;;;;;5068960;28;20051;-41
2022/07/15 01:44:22;;;;;;;6.72;1.20;;;12.00;99.90;;;;;;5068768;28;20447;-40
2022/07/15 01:46:48;;;;;;;9.48;1.70;;;11.90;99.90;;;;;;5068778;28;20055;-40
2022/07/15 01:49:22;;;;;;;8.55;2.00;;;12.10;99.90;;;;;;5068621;28;20044;-39
2022/07/15 01:51:49;;;;;;;6.70;1.00;;;11.50;99.90;;;;;;5068804;28;20072;-42
2022/07/15 01:54:15;;;;;;;10.98;2.00;;;11.40;99.90;;;;;;5068345;28;20135;-42
2022/07/15 01:56:41;;;;;;;8.30;1.05;;;11.70;99.90;;;;;;5068495;28;20171;-40
2022/07/15 01:59:07;;;;;;;8.52;1.35;;;11.60;99.90;;;;;;5068183;28;20398;-40
2022/07/15 02:01:32;;;;;;;7.05;0.90;;;11.50;99.90;;;;;;5068232;28;20040;-40
2022/07/15 02:03:58;;;;;;;8.75;1.50;;;11.20;99.90;;;;;;5068229;28;20147;-40
2022/07/15 02:06:24;;;;;;;4.82;1.08;;;11.00;99.90;;;;;;5066626;28;20478;-40
2022/07/15 02:08:49;;;;;;;7.50;0.90;;;11.40;99.90;;;;;;5068279;28;20136;-41
2022/07/15 02:11:15;;;;;;;5.75;0.68;;;11.30;99.90;;;;;;5067930;28;20052;-40
2022/07/15 02:13:40;;;;;;;4.93;0.98;;;11.50;99.90;;;;;;5068288;28;20040;-41
2022/07/15 02:16:06;;;;;;;7.13;0.90;;;11.30;99.90;;;;;;5068418;28;20048;-40
2022/07/15 02:18:32;;;;;;;6.57;0.93;;;11.40;99.90;;;;;;5068116;28;20062;-40
2022/07/15 02:20:58;;;;;;;7.60;1.20;;;11.00;99.90;;;;;;5067865;28;20040;-40
2022/07/15 02:23:23;;;;;;;7.90;0.75;;;11.00;99.90;;;;;;5066092;28;20040;-40
2022/07/15 02:25:49;;;;;;;8.65;1.63;;;11.60;99.90;;;;;;5067967;28;20044;-41
2022/07/15 02:28:15;;;;;;;6.97;1.27;;;11.30;99.90;;;;;;5067751;28;20384;-40
2022/07/15 02:30:42;;;;;;;9.98;1.00;;;11.30;99.90;;;;;;5067496;28;20079;-39
2022/07/15 02:33:09;;;;;;;7.97;1.33;;;11.40;99.90;;;;;;5067885;28;20772;-39
2022/07/15 02:35:35;;;;;;;6.15;1.95;;;10.90;99.90;;;;;;5067961;28;20044;-40
2022/07/15 02:38:01;;;;;;;6.72;1.58;;;11.80;99.90;;;;;;5067202;28;20050;-42
2022/07/15 02:40:27;;;;;;;5.00;1.30;;;11.30;99.90;;;;;;5067696;28;20036;-41
2022/07/15 02:42:55;;;;;;;5.53;1.15;;;11.30;99.90;;;;;;5068180;28;20220;-41
2022/07/15 02:45:24;;;;;;;6.53;1.05;;;11.40;99.90;;;;;;5068092;28;20090;-39
2022/07/15 02:47:50;;;;;;;6.82;0.65;;;11.10;99.90;;;;;;5067774;28;20123;-39
2022/07/15 02:50:16;;;;;;;8.90;0.95;;;11.00;99.90;;;;;;5067814;28;20410;-40
2022/07/15 02:52:43;;;;;;;8.73;1.33;;;10.60;99.90;;;;;;5067282;28;20048;-40
2022/07/15 02:55:10;;;;;;;11.25;1.20;;;10.50;99.90;;;;;;5067939;28;20527;-40
2022/07/15 02:57:36;;;;;;;8.82;0.90;;;10.70;99.90;;;;;;5067695;28;20045;-42
2022/07/15 03:00:04;;;;;;;6.72;1.67;;;10.60;99.90;;;;;;5067451;28;20095;-39
2022/07/15 03:02:30;;;;;;;8.40;1.20;;;10.10;99.90;;;;;;5067019;28;20053;-39
2022/07/15 03:04:56;;;;;;;5.18;0.85;;;10.50;99.90;;;;;;5067645;28;20113;-40
2022/07/15 03:07:22;;;;;;;8.18;1.40;;;10.30;99.90;;;;;;5067457;28;20051;-41
2022/07/15 03:09:47;;;;;;;7.15;1.10;;;10.40;99.90;;;;;;5067115;28;20032;-41
2022/07/15 03:12:13;;;;;;;10.38;1.10;;;9.90;99.90;;;;;;5067635;28;20406;-40
2022/07/15 03:14:40;;;;;;;6.90;0.75;;;;;;;;;;5067091;28;20088;-40
2022/07/15 03:17:07;;;;;;;7.50;1.75;;;;;;;;;;5067400;28;20520;-40
2022/07/15 03:19:34;;;;;;;6.80;0.98;;;;;;;;;;5067682;28;20058;-42
2022/07/15 03:22:01;;;;;;;10.15;0.95;;;;;;;;;;5067702;28;20059;-40
2022/07/15 03:24:28;;;;;;;5.68;0.73;;;;;;;;;;5067180;28;20045;-40
2022/07/15 03:26:55;;;;;;;5.63;1.17;;;;;;;;;;5067301;28;20135;-40
2022/07/15 03:29:22;;;;;;;7.70;1.50;;;;;;;;;;5066785;28;20420;-40
2022/07/15 03:31:49;;;;;;;8.70;0.90;;;;;;;;;;5067299;28;20482;-39
2022/07/15 03:34:18;;;;;;;8.43;0.60;;;;;;;;;;5067017;28;20567;-40
2022/07/15 03:36:47;;;;;;;5.45;0.98;;;;;;;;;;5067296;28;20129;-40
2022/07/15 03:39:16;;;;;;;7.53;1.05;;;;;;;;;;5067279;28;20047;-40
2022/07/15 03:41:46;;;;;;;9.05;1.88;;;;;;;;;;5067387;28;20144;-39
2022/07/15 03:44:16;;;;;;;5.18;1.00;;;;;;;;;;5067644;28;20075;-40
2022/07/15 03:46:45;;;;;;;8.85;1.20;;;;;;;;;;5067342;28;20041;-39
2022/07/15 03:49:15;;;;;;;6.55;1.15;;;;;;;;;;5069648;28;20071;-40
2022/07/15 03:51:44;;;;;;;6.90;1.60;;;;;;;;;;5070876;28;20041;-41
2022/07/15 03:54:13;;;;;;;9.65;1.67;;;;;;;;;;5070604;28;20486;-40
2022/07/15 03:56:42;;;;;;;6.03;1.42;;;;;;;;;;5070396;28;20557;-40
2022/07/15 03:59:11;;;;;;;5.95;0.93;;;;;;;;;;5069490;28;20050;-39
2022/07/15 04:01:41;;;;;;;6.97;0.90;;;;;;;;;;5070700;28;20055;-40
2022/07/15 04:04:10;;;;;;;5.43;1.63;;;;;;;;;;5070879;28;20524;-39
2022/07/15 04:06:39;;;;;;;8.43;1.45;;;;;;;;;;5070439;28;20045;-40
2022/07/15 04:09:09;;;;;;;9.02;1.95;;;;;;;;;;5070506;28;20532;-40
2022/07/15 04:11:42;;;;;;;6.07;1.35;;;;;;;;;;5070070;28;20394;-41
2022/07/15 04:14:13;;;;;;;7.72;1.52;;;;;;;;;;5070341;28;20410;-40
2022/07/15 04:16:41;;;;;;;8.70;1.90;;;;;;;;;;5070247;28;20059;-40
2022/07/15 04:19:08;;;;;;;6.55;1.63;;;;;;;;;;5070386;28;20044;-40
2022/07/15 04:21:35;;;;;;;7.07;2.03;;;;;;;;;;5070189;28;20044;-40
2022/07/15 04:24:03;;;;;;;7.68;1.10;;;;;;;;;;5069351;28;20521;-40
2022/07/15 04:26:30;;;;;;;7.55;1.60;;;;;;;;;;5070335;28;20083;-40
2022/07/15 04:28:59;;;;;;;9.85;1.90;;;;;;;;;;5070653;28;20051;-40
2022/07/15 04:31:26;;;;;;;7.25;1.98;;;;;;;;;;5070289;28;20049;-39
2022/07/15 04:33:53;;;;;;;5.10;1.27;;;;;;;;;;5070009;28;20658;-40
2022/07/15 04:36:20;;;;;;;5.57;1.23;;;;;;;;;;5070329;28;20089;-41
2022/07/15 04:38:47;;;;;;;7.43;1.50;;;;;;;;;;5069715;28;20068;-41
2022/07/15 04:41:14;;;;;;;4.43;1.42;;;;;;;;;;5070072;28;20044;-39
2022/07/15 04:43:41;;;;;;;5.55;1.60;;;;;;;;;;5069446;28;20040;-40
2022/07/15 04:46:09;;;;;;;7.68;1.67;;;;;;;;;;5068009;28;20371;-40
2022/07/15 04:51:23;;;;;;;7.40;1.10;;;;;;;;;;5069426;28;20044;-40
2022/07/15 04:53:52;;;;;;;6.20;1.27;;;;;;;;;;5069474;28;20044;-41
2022/07/15 04:56:19;;;;;;;6.40;0.90;;;;;;;;;;5069576;28;20041;-40
2022/07/15 04:58:47;;;;;;;9.75;1.10;;;;;;;;;;5069646;28;20128;-40
2022/07/15 05:01:13;;;;;;;3.92;0.73;;;11.80;99.90;;;;;;5069015;28;20051;-42
2022/07/15 05:03:39;;;;;;;8.45;1.52;;;12.30;99.90;;;;;;5069655;28;20135;-41
2022/07/15 05:06:05;;;;;;;4.95;1.00;;;12.00;99.90;;;;;;5069500;28;20501;-40
2022/07/15 05:08:30;;;;;;;10.32;1.75;;;12.00;99.90;;;;;;5069704;28;20045;-40
2022/07/15 05:10:56;;;;;;;7.50;1.13;;;12.80;99.90;;;;;;5069236;28;20386;-41
2022/07/15 05:13:22;;;;;;;6.10;0.80;;;12.70;99.90;;;;;;5069262;28;20483;-41
2022/07/15 05:15:48;;;;;;;5.38;0.60;;;12.70;99.90;;;;;;5069287;28;20106;-42
2022/07/15 05:18:13;;;;;;;3.47;0.52;;;13.50;99.90;;;;;;5069785;28;20040;-41
2022/07/15 05:20:39;;;;;;;3.92;0.60;;;13.90;99.90;;;;;;5069083;28;20079;-40
2022/07/15 05:23:05;;;;;;;5.50;1.00;;;14.20;99.90;;;;;;5069768;28;20048;-41
2022/07/15 05:25:30;;;;;;;2.38;0.40;;;14.70;99.90;;;;;;5069632;28;20051;-40
2022/07/15 05:27:57;;;;;;;5.15;1.00;;;14.60;99.90;;;;;;5069145;28;20048;-40
2022/07/15 05:30:22;;;;;;;4.03;0.30;;;15.20;99.90;;;;;;5068635;28;20044;-49
2022/07/15 05:32:48;;;;;;;3.35;0.30;;;15.20;99.90;;;;;;5068358;28;20047;-47
2022/07/15 05:35:15;;;;;;;4.63;0.45;;;14.80;99.90;;;;;;5068360;28;20032;-46
2022/07/15 05:37:41;;;;;;;4.32;0.60;;;14.70;99.90;;;;;;5068227;28;20067;-46
2022/07/15 05:40:08;;;;;;;4.88;0.68;;;14.70;99.90;;;;;;5068255;28;20052;-49
2022/07/15 05:42:34;;;;;;;5.13;0.65;;;14.70;99.90;;;;;;5068066;28;20044;-46
2022/07/15 05:45:00;;;;;;;4.63;0.75;;;14.80;99.90;;;;;;5067798;28;20510;-46
2022/07/15 05:47:26;;;;;;;7.03;0.20;;;14.70;99.90;;;;;;5068058;28;20083;-46
2022/07/15 05:49:52;;;;;;;3.50;0.30;;;14.70;99.90;;;;;;5066250;28;20483;-46
2022/07/15 05:52:18;;;;;;;2.00;0.28;;;14.80;99.90;;;;;;5067914;28;20123;-47
2022/07/15 05:54:43;;;;;;;4.75;0.40;;;15.10;99.90;;;;;;5067490;28;20157;-46
2022/07/15 05:57:09;;;;;;;3.53;0.30;;;14.60;99.90;;;;;;5067842;28;20103;-46
2022/07/15 05:59:35;;;;;;;4.45;0.82;;;14.70;99.90;;;;;;5067332;28;20529;-46
2022/07/15 06:02:00;;;;;;;2.92;0.30;;;14.70;99.90;;;;;;5067745;28;20441;-46
2022/07/15 06:04:27;;;;;;;3.08;0.25;;;14.90;99.90;;;;;;5067432;28;20439;-46
2022/07/15 06:06:54;;;;;;;3.35;0.50;;;14.80;99.90;;;;;;5067777;28;20105;-46
2022/07/15 06:09:20;;;;;;;3.78;0.20;;;15.20;99.90;;;;;;5068081;28;20051;-47
2022/07/15 06:11:46;;;;;;;2.53;0.32;;;15.00;99.90;;;;;;5066646;28;20043;-46
2022/07/15 06:14:11;;;;;;;3.47;0.65;;;15.10;99.90;;;;;;5067329;28;20509;-46
2022/07/15 06:16:37;;;;;;;6.60;0.43;;;15.50;99.90;;;;;;5067096;28;20044;-49
2022/07/15 06:19:03;;;;;;;5.38;0.50;;;15.50;99.90;;;;;;5067542;28;20511;-47
2022/07/15 06:21:30;;;;;;;3.50;0.30;;;15.80;99.90;;;;;;5067436;28;20121;-47
2022/07/15 06:23:56;;;;;;;2.55;0.47;;;16.00;99.90;;;;;;5067425;28;20055;-46
2022/07/15 06:26:21;;;;;;;1.52;0.10;;;16.20;99.90;;;;;;5067105;28;20079;-46
2022/07/15 06:28:48;;;;;;;3.67;0.25;;;16.40;99.90;;;;;;5066580;28;20076;-50
2022/07/15 06:31:13;;;;;;;2.08;0.17;;;17.00;99.90;;;;;;5067300;28;20040;-47
2022/07/15 06:33:39;;;;;;;2.13;0.30;;;19.60;99.90;;;;;;5067021;28;20056;-48
2022/07/15 06:36:05;;;;;;;2.28;0.20;;;20.30;99.90;;;;;;5067254;28;20051;-46
2022/07/15 06:38:32;;;;;;;1.13;0.15;;;22.50;99.90;;;;;;5067827;28;20079;-48
2022/07/15 06:40:58;;;;;;;3.10;0.17;;;22.00;99.90;;;;;;5066722;28;20402;-49
2022/07/15 06:43:23;;;;;;;2.92;0.10;;;21.30;97.10;;;;;;5067718;28;20058;-47
2022/07/15 06:45:49;;;;;;;1.95;0.10;;;21.10;97.90;;;;;;5067114;28;20487;-48
2022/07/15 06:48:15;;;;;;;1.48;0.20;;;21.00;96.50;;;;;;5067280;28;20054;-47
2022/07/15 06:50:41;;;;;;;3.08;0.25;;;21.00;95.20;;;;;;5067607;28;20044;-47
2022/07/15 06:53:06;;;;;;;1.70;0.10;;;21.10;94.60;;;;;;5067033;28;20171;-50
2022/07/15 06:55:32;;;;;;;3.92;0.15;;;21.30;93.40;;;;;;5067081;28;20044;-48
2022/07/15 06:57:58;;;;;;;3.85;0.50;;;21.40;92.90;;;;;;5067371;28;20602;-47
2022/07/15 07:00:23;;;;;;;5.72;0.20;;;21.20;92.60;;;;;;5067216;28;20127;-47
2022/07/15 07:02:49;;;;;;;2.97;0.20;;;21.10;92.50;;;;;;5067107;28;20117;-47
2022/07/15 07:05:16;;;;;;;1.15;0.10;;;20.80;92.20;;;;;;5067259;28;20041;-48
2022/07/15 07:07:42;;;;;;;2.45;0.10;;;20.50;92.00;;;;;;5067293;28;20055;-50
2022/07/15 07:10:08;;;;;;;3.63;0.10;;;20.10;93.60;;;;;;5066434;28;20048;-48
2022/07/15 07:12:34;;;;;;;0.65;0.10;;;19.80;92.40;;;;;;5067225;28;20177;-52
2022/07/15 07:15:02;;;;;;;2.10;0.10;;;19.50;92.60;;;;;;5066758;28;20127;-49
2022/07/15 07:17:28;;;;;;;4.03;0.10;;;19.30;92.70;;;;;;5067396;28;20063;-49
2022/07/15 07:19:55;;;;;;;3.35;0.30;;;19.20;92.80;;;;;;5067068;28;20123;-48
2022/07/15 07:22:21;;;;;;;2.35;0.13;;;19.10;93.00;;;;;;5066844;28;20052;-48
2022/07/15 07:24:47;;;;;;;2.20;0.10;;;19.20;92.90;;;;;;5070339;28;20474;-47
2022/07/15 07:27:13;;;;;;;4.45;0.38;;;19.80;92.40;;;;;;5070355;28;20058;-47
2022/07/15 07:29:40;;;;;;;2.83;0.40;;;20.80;91.90;;;;;;5070382;28;20105;-50
2022/07/15 07:32:06;;;;;;;2.13;0.10;;;21.80;90.90;;;;;;5070464;28;20436;-47
2022/07/15 07:34:32;;;;;;;3.15;0.10;;;24.00;88.00;;;;;;5070894;28;20048;-50
2022/07/15 07:36:58;;;;;;;1.70;0.10;;;24.30;84.50;;;;;;5068765;28;20394;-47
2022/07/15 07:39:24;;;;;;;2.35;0.10;;;24.20;82.00;;;;;;5069716;28;20048;-47
2022/07/15 07:41:53;;;;;;;2.03;0.20;;;24.00;82.30;;;;;;5069969;28;20122;-48
2022/07/15 07:44:19;;;;;;;1.45;0.03;;;23.90;79.60;;;;;;5070286;28;20048;-47
2022/07/15 07:46:46;;;;;;;2.05;0.10;;;24.60;78.10;;;;;;5052509;28;20622;-48
2022/07/15 07:49:12;;;;;;;1.27;0.10;;;26.00;74.70;;;;;;5070584;28;20386;-49
2022/07/15 07:51:40;;;;;;;3.30;0.30;;;27.40;72.20;;;;;;5070329;28;20039;-51
2022/07/15 07:54:09;;;;;;;1.95;0.10;;;29.30;67.60;;;;;;5069786;28;20132;-48
2022/07/15 07:56:35;;;;;;;1.27;0.10;;;31.30;64.70;;;;;;5070141;28;20060;-48
2022/07/15 07:59:01;;;;;;;2.22;0.20;;;32.10;61.70;;;;;;5070308;28;20053;-49
2022/07/15 08:01:26;;;;;;;1.55;0.10;;;31.70;59.90;;;;;;5070634;28;20476;-49
2022/07/15 08:03:52;;;;;;;1.95;0.35;;;32.30;58.00;;;;;;5069751;28;20440;-48
2022/07/15 08:06:18;;;;;;;1.55;0.13;;;33.20;56.60;;;;;;5070014;28;20040;-49
2022/07/15 08:08:44;;;;;;;0.73;0.10;;;33.60;55.10;;;;;;5069519;28;20040;-49
2022/07/15 08:11:10;;;;;;;0.95;0.08;;;33.10;54.20;;;;;;5069883;28;20036;-52
2022/07/15 08:13:37;;;;;;;1.58;0.10;;;31.90;53.40;;;;;;5069654;28;20099;-48
2022/07/15 08:16:03;;;;;;;0.45;0.00;;;30.60;53.60;;;;;;5070083;28;20436;-48
2022/07/15 08:18:28;;;;;;;0.55;0.00;;;28.80;54.90;;;;;;5069880;28;20081;-48
2022/07/15 08:20:54;;;;;;;0.85;0.10;;;28.00;55.50;;;;;;5069220;28;20080;-48
2022/07/15 08:23:21;;;;;;;1.92;0.20;;;27.10;56.90;;;;;;5069666;28;20553;-51
2022/07/15 08:25:49;;;;;;;2.45;0.20;;;26.20;58.60;;;;;;5069488;28;20044;-48
2022/07/15 08:28:15;;;;;;;2.03;0.10;;;25.70;60.00;;;;;;5069568;28;20043;-50
2022/07/15 08:30:40;;;;;;;1.48;0.10;;;25.90;61.30;;;;;;5069472;28;20045;-48
2022/07/15 08:33:06;;;;;;;2.08;0.13;;;25.70;61.50;;;;;;5069621;28;20044;-48
2022/07/15 08:35:32;;;;;;;2.90;0.00;;;25.30;60.70;;;;;;5068206;28;20111;-48
2022/07/15 08:38:03;;;;;;;1.80;0.10;;;24.80;61.20;;;;;;5069348;28;20174;-47
2022/07/15 08:40:29;;;;;;;5.03;0.15;;;24.10;62.00;;;;;;5067618;28;20048;-48
2022/07/15 08:42:55;;;;;;;4.32;0.13;;;23.40;63.30;;;;;;5069391;28;20046;-47
2022/07/15 08:45:20;;;;;;;3.10;0.10;;;22.70;64.70;;;;;;5069479;28;20624;-48
2022/07/15 08:47:47;;;;;;;4.18;0.20;;;22.00;67.50;;;;;;5069528;28;20075;-47
2022/07/15 08:50:15;;;;;;;1.08;0.00;;;21.50;72.80;;;;;;5069551;28;20045;-48
2022/07/15 08:52:43;;;;;;;1.20;0.10;;;21.20;76.40;;;;;;5069041;28;20545;-48
2022/07/15 08:55:09;;;;;;;1.05;0.10;;;21.10;78.50;;;;;;5069059;28;20094;-48
2022/07/15 08:57:35;;;;;;;2.20;0.30;;;21.30;80.60;;;;;;5069532;28;20094;-47
2022/07/15 09:00:01;;;;;;;1.45;0.13;;;21.40;83.80;;;;;;5068749;28;20577;-47
2022/07/15 09:02:27;;;;;;;1.75;0.13;;;21.30;85.60;;;;;;5068893;28;20040;-47
2022/07/15 09:05:17;;;;;;;1.55;0.00;;;21.40;86.70;;;;;;5069028;28;20052;-48
2022/07/15 09:08:04;;;;;;;5.07;0.30;;;22.00;85.00;;;;;;5068930;28;20044;-47
2022/07/15 09:10:46;;;;;;;2.90;0.10;;;22.00;78.50;;;;;;5068609;28;20052;-48
2022/07/15 09:13:31;;;;;;;0.68;0.00;;;21.90;74.40;;;;;;5068554;28;20048;-47
2022/07/15 09:16:04;;;;;;;0.98;0.10;;;21.50;73.90;;;;;;5068518;28;20048;-48
2022/07/15 09:18:36;;;;;;;2.90;0.10;;;21.10;75.40;;;;;;5068723;28;20098;-48
2022/07/15 09:21:13;;;;;;;2.08;0.15;;;20.80;76.40;;;;;;5068525;28;20497;-48
2022/07/15 09:23:39;;;;;;;0.98;0.10;;;20.40;75.90;;;;;;5069138;28;20390;-47
2022/07/15 09:26:26;;;;;;;2.72;0.17;;;20.20;77.20;;;;;;5068730;28;20294;-47
2022/07/15 09:28:52;;;;;;;2.42;0.20;;;20.10;78.90;;;;;;5069036;28;20381;-48
2022/07/15 09:34:21;;;;;;;0.90;0.00;;;20.30;79.60;;;;;;5068627;28;20037;-49
2022/07/15 09:36:57;;;;;;;1.30;0.10;;;20.40;79.20;;;;;;5068618;28;20631;-47
2022/07/15 09:39:25;;;;;;;0.82;0.00;;;20.50;79.70;;;;;;5067480;28;20045;-48
2022/07/15 09:41:51;;;;;;;2.17;0.10;;;20.80;79.50;;;;;;5067844;28;20115;-48
2022/07/15 09:44:22;;;;;;;0.90;0.05;;;21.50;79.30;;;;;;5067656;28;20481;-48
2022/07/15 09:47:01;;;;;;;1.48;0.10;;;22.10;78.80;;;;;;5067088;28;20093;-47
2022/07/15 09:49:26;;;;;;;0.40;0.00;;;22.60;77.60;;;;;;5067905;28;20484;-47
2022/07/15 09:51:54;;;;;;;3.70;0.40;;;23.10;76.60;;;;;;5068051;28;20037;-48
2022/07/15 09:54:24;;;;;;;1.55;0.03;;;23.60;76.70;;;;;;5067665;28;20044;-48
2022/07/15 09:56:51;;;;;;;1.63;0.30;;;25.50;74.70;;;;;;5067877;28;20044;-47
2022/07/15 09:59:17;;;;;;;0.80;0.05;;;27.20;68.60;;;;;;5066067;28;20044;-48
2022/07/15 10:01:44;;;;;;;1.48;0.15;;;28.20;65.90;;;;;;5067493;28;20458;-49
2022/07/15 10:04:10;;;;;;;1.52;0.10;;;28.10;63.60;;;;;;5065879;28;20049;-47
2022/07/15 10:06:38;;;;;;;0.65;0.00;;;27.80;62.20;;;;;;5067614;28;20067;-47
2022/07/15 10:09:06;;;;;;;1.33;0.10;;;27.40;61.60;;;;;;5066864;28;20076;-48
2022/07/15 10:11:40;;;;;;;2.92;0.03;;;26.90;60.60;;;;;;5067870;28;20257;-50
2022/07/15 10:14:24;;;;;;;1.98;0.10;;;26.50;61.20;;;;;;5067183;28;20092;-50
2022/07/15 10:17:12;;;;;;;1.48;0.10;;;26.10;62.00;;;;;;5067332;28;20078;-48
2022/07/15 10:19:46;;;;;;;0.88;0.00;;;25.80;63.60;;;;;;5065918;28;20055;-49
2022/07/15 10:22:30;;;;;;;0.28;0.00;;;25.60;64.00;;;;;;5067403;28;20055;-47
2022/07/15 10:25:10;;;;;;;1.20;0.10;;;25.30;65.10;;;;;;5067483;28;20044;-48
2022/07/15 10:27:50;;;;;;;0.90;0.00;;;25.00;64.80;;;;;;5067320;28;20464;-48
2022/07/15 10:30:20;;;;;;;1.77;0.10;;;24.70;65.40;;;;;;5067335;28;20044;-48
2022/07/15 10:33:10;;;;;;;0.65;0.08;;;24.70;65.80;;;;;;5067301;28;20040;-49
2022/07/15 10:35:53;;;;;;;1.85;0.10;;;24.50;66.10;;;;;;5066999;28;20426;-51
2022/07/15 10:38:20;;;;;;;0.32;0.00;;;24.20;66.30;;;;;;5066455;28;20045;-49
2022/07/15 10:41:21;;;;;;;0.60;0.00;;;24.00;67.20;;;;;;5066400;28;20051;-52
2022/07/15 10:43:54;;;;;;;1.95;0.00;;;23.90;67.30;;;;;;5056727;28;20052;-50
2022/07/15 10:46:21;;;;;;;1.98;0.00;;;23.90;67.20;;;;;;5067789;28;20041;-52
2022/07/15 10:48:48;;;;;;;0.57;0.10;;;24.00;67.00;;;;;;5067281;28;20494;-51
2022/07/15 10:51:36;;;;;;;1.98;0.00;;;24.30;66.60;;;;;;5067033;28;20565;-55
2022/07/15 10:54:09;;;;;;;3.13;0.00;;;24.70;66.00;;;;;;5066619;28;20525;-51
2022/07/15 10:56:37;;;;;;;2.10;0.00;;;25.00;65.30;;;;;;5067288;28;20478;-52
2022/07/15 10:59:20;;;;;;;2.33;0.10;;;25.20;64.70;;;;;;5069244;28;20048;-51
2022/07/15 11:02:11;;;;;;;1.20;0.00;;;25.40;64.60;;;;;;5070882;28;20116;-50
2022/07/15 11:04:37;;;;;;;0.73;0.00;;;25.40;63.70;;;;;;5071486;28;20033;-49
2022/07/15 11:07:03;;;;;;;0.82;0.00;;;25.70;63.70;;;;;;5071288;28;20547;-49
2022/07/15 11:09:47;;;;;;;1.33;0.05;;;25.80;63.70;;;;;;5070953;28;20541;-48
2022/07/15 11:12:15;;;;;;;1.10;0.00;;;25.90;64.30;;;;;;5070450;28;20040;-48
2022/07/15 11:14:54;;;;;;;1.75;0.00;;;25.80;64.40;;;;;;5070672;28;20048;-47
2022/07/15 11:17:33;;;;;;;0.98;0.00;;;25.90;63.40;;;;;;5070601;28;20090;-51
2022/07/15 11:20:08;;;;;;;0.77;0.03;;;26.00;63.50;;;;;;5071001;28;20052;-49
2022/07/15 11:22:38;;;;;;;2.17;0.05;;;26.20;63.00;;;;;;5070933;28;20120;-49
2022/07/15 11:25:06;;;;;;;2.08;0.05;;;26.20;62.40;;;;;;5070579;28;20053;-48
2022/07/15 11:27:32;;;;;;;2.33;0.20;;;26.10;61.90;;;;;;5070107;28;20132;-49
2022/07/15 11:30:04;;;;;;;0.50;0.00;;;25.60;61.30;;;;;;5069167;28;20143;-48
2022/07/15 11:32:33;;;;;;;1.23;0.20;;;24.90;61.50;;;;;;5069644;28;20258;-48
2022/07/15 11:35:02;;;;;;;1.45;0.13;;;24.10;62.40;;;;;;5070796;28;20460;-48
2022/07/15 11:37:33;;;;;;;1.75;0.10;;;23.50;64.10;;;;;;5070364;28;20135;-49
2022/07/15 11:40:09;;;;;;;2.50;0.10;;;23.00;70.40;;;;;;5070490;28;20046;-48
2022/07/15 11:45:38;;;;;;;1.00;0.17;;;;;;;;;;5070516;28;20225;-47
2022/07/15 11:48:06;;;;;;;0.82;0.10;;;21.60;96.60;;;;;;5070150;28;20036;-48
2022/07/15 11:50:34;;;;;;;0.43;0.00;;;21.30;75.30;;;;;;5068753;28;20044;-49
2022/07/15 11:53:00;;;;;;;3.92;0.10;;;21.10;78.20;;;;;;5070442;28;20040;-50
2022/07/15 11:55:26;;;;;;;0.52;0.10;;;20.70;77.40;;;;;;5070187;28;20364;-50
2022/07/15 11:57:52;;;;;;;2.60;0.10;;;20.70;79.70;;;;;;5070075;28;20382;-50
2022/07/15 12:00:19;;;;;;;2.20;0.10;;;20.60;86.60;;;;;;5070349;28;20044;-48
2022/07/15 12:02:45;;;;;;;0.73;0.10;;;20.50;81.90;;;;;;5070201;28;20116;-47
2022/07/15 12:05:11;;;;;;;0.80;0.03;;;20.40;82.90;;;;;;5070117;28;20040;-48
2022/07/15 12:07:45;;;;;;;0.98;0.15;;;20.30;81.10;;;;;;5070253;28;20048;-47
2022/07/15 12:10:11;;;;;;;1.38;0.10;;;20.20;75.10;;;;;;5069353;28;20394;-47
2022/07/15 12:13:01;;;;;;;0.70;0.00;;;20.40;77.60;;;;;;5070133;28;20043;-47
2022/07/15 12:15:31;;;;;;;2.22;0.00;;;20.40;76.30;;;;;;5069482;28;20060;-48
2022/07/15 12:17:57;;;;;;;1.58;0.00;;;20.80;75.20;;;;;;5069868;28;20040;-49
2022/07/15 12:20:23;;;;;;;2.00;0.05;;;21.10;76.90;;;;;;5069867;28;20489;-47
2022/07/15 12:23:26;;;;;;;1.75;0.20;;;21.30;76.40;;;;;;5070244;28;20055;-47
2022/07/15 12:26:08;;;;;;;2.65;0.30;;;21.60;76.40;;;;;;5037583;28;20551;-48
2022/07/15 12:28:35;;;;;;;2.58;0.00;;;21.40;74.30;;;;;;5069452;28;20041;-47
2022/07/15 12:31:02;;;;;;;2.45;0.10;;;21.30;76.70;;;;;;5069912;28;20029;-47
2022/07/15 12:33:32;;;;;;;0.75;0.00;;;21.30;76.90;;;;;;5069226;28;20045;-50
2022/07/15 12:36:19;;;;;;;1.15;0.10;;;21.40;76.80;;;;;;5069478;28;20109;-48
2022/07/15 12:39:04;;;;;;;0.52;0.00;;;21.60;74.50;;;;;;5069355;28;20135;-47
2022/07/15 12:41:30;;;;;;;0.22;0.10;;;21.80;73.80;;;;;;5069015;28;20532;-49
2022/07/15 12:43:58;;;;;;;3.03;0.15;;;21.90;75.20;;;;;;5069617;28;20041;-47
2022/07/15 12:46:51;;;;;;;1.50;0.30;;;22.20;75.30;;;;;;5069589;28;20055;-48
2022/07/15 12:49:39;;;;;;;3.35;0.10;;;22.50;73.00;;;;;;5069482;28;20080;-48
2022/07/15 12:52:31;;;;;;;3.65;0.10;;;22.70;73.30;;;;;;5067853;28;20048;-48
2022/07/15 12:54:59;;;;;;;1.23;0.10;;;22.70;72.70;;;;;;5069426;28;20037;-47
2022/07/15 12:57:33;;;;;;;1.17;0.03;;;23.00;75.50;;;;;;5068968;28;20037;-50
2022/07/15 13:00:04;;;;;;;0.98;0.10;;;23.10;73.60;;;;;;5068976;28;20044;-47
2022/07/15 13:02:31;;;;;;;;;;;23.10;74.00;;;;;;5069325;28;20058;-48
2022/07/15 13:04:57;;;;;;;1.27;0.20;;;23.00;76.40;;;;;;5069152;28;19974;-47
2022/07/15 13:07:23;;;;;;;0.38;0.00;;;22.90;68.60;;;;;;5067880;28;20047;-50
2022/07/15 13:09:50;;;;;;;0.68;0.00;;;23.10;68.80;;;;;;5069439;28;20097;-48
2022/07/15 13:12:16;;;;;;;1.52;0.10;;;23.10;68.50;;;;;;5069432;28;20048;-49
2022/07/15 13:14:45;;;;;;;1.05;0.00;;;23.00;68.60;;;;;;5068483;28;20160;-47
2022/07/15 13:17:12;;;;;;;0.70;0.00;;;22.90;68.60;;;;;;5069135;28;20044;-51
2022/07/15 13:19:38;;;;;;;1.60;0.08;;;22.80;68.50;;;;;;5067679;28;20055;-48